Gallipolis, Ohio
Current Conditions -  °F | °C
As of 8:35 PM on Wednesday 22 Oct 2014 (Local Time) from K3I2 Reporting Station
Overcast Overcast  
Wind Chill: 52°   Ceiling: 3000
Heat Index: 52°   Visibility: 10mi
Dew Point: 43°   Wind: 3mph
Humidity: 71%   Direction: 330°NNW
Pressure: 30.25"   Gusts: NA
Location:  38.81°N, 82.2°W
Report Text: K3I2 230035Z AUTO 33003KT 10SM OVC030 11/06 A3025 RMK AO2
Loading
Personal Weather Stations






























Interactive Weather Map New forecast layout! Learn more

10-Day Weather Forecast

Advertisements
Track Severe Weather on mobile